Terminal Aerodrome Forecast
Issued by NWS

Home | Current Version | Previous Version | Text Only | Print | Product List | Glossary On
Versions: 1 2 3 4 5 6 7 8 9 10 11 12 13 14 15 16 17 18 19 20 21 22 23 24 25 26 27 28 29 30 31 32 33 34 35
000
FTUS43 KLOT 301700
TAFORD
TAF
KORD 301724Z 3018/3124 22016G23KT P6SM SCT022 BKN027 OVC035
     FM310100 23006KT P6SM BKN250
     FM310500 VRB03KT 4SM BR SCT250
     FM310800 VRB03KT 2SM BR SCT007
      TEMPO 3108/3112 OVC007
     FM311500 23005KT P6SM SCT025
     FM312100 19007KT P6SM SCT200=

USA.gov is the U.S. government's official web portal to all federal, state and local government web resources and services.